Orange Park, Florida
Current Conditions -  °F | °C
As of 10:53 AM on Saturday 25 Oct 2014 (Local Time) from KNIP Reporting Station
Few Clouds Few Clouds  
Wind Chill: 71°   Ceiling: Unl
Heat Index: 71°   Visibility: 10mi
Dew Point: 50°   Wind: 8mph
Humidity: 47%   Direction: 350°N
Pressure: 30.04"   Gusts: NA
Location:  30.17°N, 81.7°W
Report Text: KNIP 251453Z 35007KT 10SM FEW250 22/10 A3004 RMK AO2 SLP166 T02170100 51011
Loading
Personal Weather Stations






























Interactive Weather Map
Tropical Storm Tracking
New forecast layout! Learn more

10-Day Weather Forecast

Advertisements
Track Severe Weather on mobile